createdAt,value
2018-07-06T00:01:54.090Z,3.57
2018-07-06T00:04:34.039Z,2.80
2018-07-06T00:07:14.231Z,3.13
2018-07-06T00:09:53.853Z,2.80
2018-07-06T00:12:33.811Z,2.80
2018-07-06T00:15:13.526Z,2.50
2018-07-06T00:17:53.323Z,2.77
2018-07-06T00:20:33.066Z,2.40
2018-07-06T00:23:12.692Z,3.87
2018-07-06T00:25:52.686Z,3.03
2018-07-06T00:28:32.458Z,3.30
2018-07-06T00:31:12.459Z,2.87
2018-07-06T00:33:52.022Z,3.13
2018-07-06T00:36:31.836Z,2.80
2018-07-06T00:39:11.591Z,3.57
2018-07-06T00:41:51.532Z,3.40
2018-07-06T00:44:31.247Z,2.90
2018-07-06T00:47:11.192Z,3.17
2018-07-06T00:49:51.203Z,3.20
2018-07-06T00:52:31.163Z,2.97
2018-07-06T00:55:10.861Z,3.20
2018-07-06T00:57:53.643Z,3.40
2018-07-06T01:00:33.600Z,2.60
2018-07-06T01:03:13.946Z,2.80
2018-07-06T01:05:54.076Z,2.80
2018-07-06T01:08:33.928Z,2.53
2018-07-06T01:11:13.802Z,2.90
2018-07-06T01:13:53.584Z,2.30
2018-07-06T01:16:33.568Z,2.50
2018-07-06T01:19:13.520Z,2.40
2018-07-06T01:21:53.214Z,2.33
2018-07-06T01:24:32.947Z,2.40
2018-07-06T01:27:12.661Z,2.10
2018-07-06T01:29:52.310Z,2.23
2018-07-06T01:32:32.288Z,2.60
2018-07-06T01:35:12.039Z,1.90
2018-07-06T01:37:52.041Z,2.30
2018-07-06T01:40:31.971Z,2.10
2018-07-06T01:43:12.005Z,2.00
2018-07-06T01:45:51.894Z,1.93
2018-07-06T01:48:31.532Z,2.30
2018-07-06T01:51:11.622Z,2.23
2018-07-06T01:53:51.526Z,2.30
2018-07-06T01:56:31.227Z,2.10
2018-07-06T01:59:11.123Z,2.13
2018-07-06T02:01:50.906Z,2.23
2018-07-06T02:04:30.843Z,2.30
2018-07-06T02:07:10.956Z,2.27
2018-07-06T02:09:50.688Z,2.13
2018-07-06T02:12:30.683Z,2.70
2018-07-06T02:15:10.595Z,2.70
2018-07-06T02:17:50.658Z,2.10
2018-07-06T02:20:30.397Z,2.40
2018-07-06T02:23:10.062Z,2.63
2018-07-06T02:25:49.870Z,2.67
2018-07-06T02:28:29.464Z,2.30
2018-07-06T02:31:09.220Z,2.23
2018-07-06T02:33:49.068Z,2.50
2018-07-06T02:36:29.022Z,2.33
2018-07-06T02:39:08.836Z,2.50
2018-07-06T02:41:48.910Z,2.30
2018-07-06T02:44:28.864Z,2.50
2018-07-06T02:47:08.765Z,2.17
2018-07-06T02:49:49.021Z,2.40
2018-07-06T02:52:28.821Z,2.50
2018-07-06T02:55:08.924Z,2.20
2018-07-06T02:57:48.705Z,2.70
2018-07-06T03:00:28.714Z,1.77
2018-07-06T03:03:08.383Z,2.30
2018-07-06T03:05:48.439Z,2.50
2018-07-06T03:08:28.435Z,1.90
2018-07-06T03:11:08.644Z,2.60
2018-07-06T03:13:48.244Z,2.20
2018-07-06T03:16:28.162Z,2.40
2018-07-06T03:19:08.187Z,2.40
2018-07-06T03:21:48.122Z,1.93
2018-07-06T03:24:27.767Z,2.00
2018-07-06T03:27:07.605Z,2.20
2018-07-06T03:29:47.539Z,2.00
2018-07-06T03:32:27.543Z,2.17
2018-07-06T03:35:07.490Z,2.10
2018-07-06T03:37:47.101Z,2.07
2018-07-06T03:40:26.901Z,2.03
2018-07-06T03:43:06.865Z,2.30
2018-07-06T03:45:47.050Z,1.87
2018-07-06T03:48:29.249Z,1.70
2018-07-06T03:51:10.138Z,1.73
2018-07-06T03:53:50.170Z,1.80
2018-07-06T03:56:29.892Z,2.00
2018-07-06T03:59:09.807Z,2.10
2018-07-06T04:04:45.151Z,2.00
2018-07-06T04:07:25.086Z,2.00
2018-07-06T04:10:05.039Z,2.07
2018-07-06T04:12:45.011Z,2.17
2018-07-06T04:15:24.967Z,1.80
2018-07-06T04:18:04.870Z,1.80
2018-07-06T04:20:44.837Z,2.03
2018-07-06T04:23:24.777Z,1.90
2018-07-06T04:26:04.765Z,1.90
2018-07-06T04:28:44.722Z,2.90
2018-07-06T04:31:24.849Z,2.17
2018-07-06T04:34:04.813Z,2.10
2018-07-06T04:36:44.746Z,2.03
2018-07-06T04:39:24.471Z,2.43
2018-07-06T04:42:04.234Z,2.60
2018-07-06T04:44:44.345Z,2.20
2018-07-06T04:47:24.302Z,2.40
2018-07-06T04:50:09.203Z,2.50
2018-07-06T04:52:49.176Z,2.43
2018-07-06T04:55:29.323Z,2.80
2018-07-06T04:58:09.478Z,3.30
2018-07-06T05:00:49.634Z,3.20
2018-07-06T05:03:29.572Z,3.17
2018-07-06T05:06:09.328Z,3.33
2018-07-06T05:08:49.277Z,3.03
2018-07-06T05:11:29.228Z,2.87
2018-07-06T05:14:09.178Z,3.20
2018-07-06T05:16:49.188Z,3.23
2018-07-06T05:19:29.281Z,3.60
2018-07-06T05:22:09.428Z,2.77
2018-07-06T05:24:49.366Z,2.57
2018-07-06T05:27:29.119Z,2.80
2018-07-06T05:30:09.597Z,3.10
2018-07-06T05:32:49.824Z,3.23
2018-07-06T05:35:29.785Z,3.00
2018-07-06T05:38:09.754Z,2.90
2018-07-06T05:40:49.689Z,2.80
2018-07-06T05:43:29.831Z,2.90
2018-07-06T05:46:09.796Z,2.77
2018-07-06T05:48:49.549Z,3.00
2018-07-06T05:51:29.502Z,3.07
2018-07-06T05:54:09.420Z,3.43
2018-07-06T05:56:50.024Z,2.80
2018-07-06T05:59:30.118Z,3.00
2018-07-06T06:02:10.129Z,2.60
2018-07-06T06:04:50.072Z,3.53
2018-07-06T06:07:22.867Z,3.00
2018-07-06T06:09:52.223Z,3.10
2018-07-06T06:12:21.547Z,3.17
2018-07-06T06:14:51.574Z,3.13
2018-07-06T06:17:20.683Z,2.93
2018-07-06T06:19:50.004Z,3.17
2018-07-06T06:22:19.326Z,3.10
2018-07-06T06:24:48.523Z,3.17
2018-07-06T06:27:17.698Z,3.20
2018-07-06T06:29:46.829Z,3.30
2018-07-06T06:32:16.085Z,3.20
2018-07-06T06:34:45.439Z,3.53
2018-07-06T06:37:14.823Z,3.40
2018-07-06T06:39:43.983Z,3.50
2018-07-06T06:42:13.214Z,4.50
2018-07-06T06:44:42.427Z,3.40
2018-07-06T06:47:11.646Z,3.20
2018-07-06T06:49:41.049Z,3.20
2018-07-06T06:52:10.283Z,3.20
2018-07-06T06:54:39.477Z,3.20
2018-07-06T06:57:08.621Z,3.00
2018-07-06T06:59:37.815Z,3.30
2018-07-06T07:02:07.006Z,3.07
2018-07-06T07:04:36.162Z,4.70
2018-07-06T07:07:05.359Z,7.93
2018-07-06T07:09:34.449Z,4.10
2018-07-06T07:12:04.419Z,3.00
2018-07-06T07:14:33.803Z,3.30
2018-07-06T07:17:03.683Z,3.57
2018-07-06T07:19:33.172Z,3.90
2018-07-06T07:22:02.739Z,3.10
2018-07-06T07:24:31.931Z,3.63
2018-07-06T07:27:01.795Z,4.07
2018-07-06T07:29:31.262Z,3.70
2018-07-06T07:32:00.530Z,3.47
2018-07-06T07:34:29.698Z,3.50
2018-07-06T07:36:58.954Z,4.27
2018-07-06T07:39:28.207Z,3.60
2018-07-06T07:41:57.844Z,3.67
2018-07-06T07:44:27.007Z,3.70
2018-07-06T07:46:56.268Z,4.00
2018-07-06T07:49:26.359Z,3.90
2018-07-06T07:52:09.860Z,4.10
2018-07-06T07:54:57.179Z,4.40
2018-07-06T07:57:26.444Z,4.70
2018-07-06T07:59:57.059Z,3.90
2018-07-06T08:02:26.458Z,4.00
2018-07-06T08:04:55.635Z,4.80
2018-07-06T08:07:24.957Z,4.00
2018-07-06T08:09:54.294Z,3.77
2018-07-06T08:12:25.311Z,4.43
2018-07-06T08:14:55.817Z,4.07
2018-07-06T08:17:26.792Z,4.30
2018-07-06T08:19:57.135Z,4.23
2018-07-06T08:22:27.451Z,4.10
2018-07-06T08:24:56.794Z,3.17
2018-07-06T08:27:29.027Z,3.80
2018-07-06T08:29:59.425Z,3.83
2018-07-06T08:32:29.042Z,3.57
2018-07-06T08:35:10.404Z,3.63
2018-07-06T08:37:51.932Z,3.87
2018-07-06T08:40:23.225Z,3.40
2018-07-06T08:43:00.385Z,4.30
2018-07-06T08:45:31.697Z,3.77
2018-07-06T08:48:01.146Z,3.27
2018-07-06T08:50:31.356Z,3.40
2018-07-06T08:53:01.560Z,3.97
2018-07-06T08:55:32.152Z,4.30
2018-07-06T08:58:04.614Z,3.50
2018-07-06T09:00:35.281Z,3.37
2018-07-06T09:03:06.615Z,3.23
2018-07-06T09:05:36.406Z,4.23
2018-07-06T09:08:06.876Z,3.53
2018-07-06T09:10:38.228Z,3.23
2018-07-06T09:13:07.723Z,4.27
2018-07-06T09:15:43.523Z,3.50
2018-07-06T09:18:15.280Z,3.97
2018-07-06T09:20:44.633Z,3.87
2018-07-06T09:23:15.736Z,3.57
2018-07-06T09:25:47.150Z,4.13
2018-07-06T09:28:19.769Z,3.73
2018-07-06T09:30:56.592Z,3.93
2018-07-06T09:33:27.398Z,4.07
2018-07-06T09:35:57.944Z,4.70
2018-07-06T09:38:32.256Z,4.80
2018-07-06T09:41:06.460Z,4.73
2018-07-06T09:43:38.807Z,4.97
2018-07-06T09:46:12.909Z,5.63
2018-07-06T09:48:44.972Z,5.23
2018-07-06T09:51:15.030Z,5.03
2018-07-06T09:53:50.933Z,5.33
2018-07-06T09:56:25.244Z,6.43
2018-07-06T09:59:07.317Z,5.07
2018-07-06T10:01:38.454Z,7.70
2018-07-06T10:04:09.625Z,6.53
2018-07-06T10:06:40.401Z,5.80
2018-07-06T10:09:18.182Z,6.60
2018-07-06T10:11:55.801Z,6.27
2018-07-06T10:14:29.038Z,6.37
2018-07-06T10:17:05.257Z,7.50
2018-07-06T10:19:39.537Z,6.80
2018-07-06T10:22:22.542Z,7.13
2018-07-06T10:24:55.501Z,7.17
2018-07-06T10:27:40.117Z,7.27
2018-07-06T10:30:21.953Z,6.70
2018-07-06T10:32:53.079Z,6.67
2018-07-06T10:35:26.171Z,7.00
2018-07-06T10:38:02.170Z,6.70
2018-07-06T10:40:33.658Z,6.90
2018-07-06T10:43:07.055Z,6.33
2018-07-06T10:45:39.877Z,7.40
2018-07-06T10:48:13.007Z,6.20
2018-07-06T10:50:43.215Z,7.30
2018-07-06T10:53:13.090Z,7.27
2018-07-06T10:55:48.550Z,6.33
2018-07-06T10:58:31.533Z,6.50
2018-07-06T11:01:02.301Z,5.90
2018-07-06T11:03:33.034Z,6.67
2018-07-06T11:06:03.822Z,6.23
2018-07-06T11:08:37.949Z,6.50
2018-07-06T11:11:11.583Z,5.80
2018-07-06T11:13:47.061Z,5.40
2018-07-06T11:16:23.898Z,5.30
2018-07-06T11:18:58.173Z,4.70
2018-07-06T11:21:29.046Z,4.03
2018-07-06T11:23:59.242Z,4.30
2018-07-06T11:26:29.675Z,4.70
2018-07-06T11:29:02.739Z,4.70
2018-07-06T11:31:37.611Z,3.80
2018-07-06T11:34:11.774Z,4.37
2018-07-06T11:36:43.404Z,4.10
2018-07-06T11:39:15.083Z,3.60
2018-07-06T11:41:45.591Z,3.60
2018-07-06T11:44:15.871Z,4.10
2018-07-06T11:46:49.121Z,3.57
2018-07-06T11:49:19.578Z,3.47
2018-07-06T11:51:51.272Z,3.40
2018-07-06T11:54:27.835Z,3.23
2018-07-06T11:56:59.528Z,4.33
2018-07-06T11:59:30.791Z,3.47
2018-07-06T12:02:01.597Z,3.63
2018-07-06T12:04:38.466Z,3.77
2018-07-06T12:07:10.522Z,4.00
2018-07-06T12:09:41.909Z,4.43
2018-07-06T12:13:13.182Z,3.80
2018-07-06T12:15:46.109Z,3.57
2018-07-06T12:18:24.959Z,3.60
2018-07-06T12:20:57.006Z,3.33
2018-07-06T12:23:26.711Z,3.23
2018-07-06T12:26:01.546Z,4.10
2018-07-06T12:28:34.795Z,4.07
2018-07-06T12:31:07.616Z,3.50
2018-07-06T12:33:40.335Z,3.40
2018-07-06T12:36:15.994Z,3.20
2018-07-06T12:38:49.854Z,3.13
2018-07-06T12:41:21.124Z,3.07
2018-07-06T12:43:59.030Z,2.90
2018-07-06T12:46:32.504Z,3.40
2018-07-06T12:49:09.828Z,2.50
2018-07-06T12:51:41.871Z,2.80
2018-07-06T12:54:14.392Z,2.87
2018-07-06T12:56:45.192Z,2.50
2018-07-06T12:59:26.337Z,2.40
2018-07-06T13:01:58.458Z,2.57
2018-07-06T13:04:31.320Z,2.70
2018-07-06T13:07:05.584Z,2.33
2018-07-06T13:09:41.912Z,2.60
2018-07-06T13:12:17.731Z,2.50
2018-07-06T13:14:57.267Z,2.40
2018-07-06T13:17:39.750Z,2.60
2018-07-06T13:20:14.564Z,2.83
2018-07-06T13:22:46.379Z,2.20
2018-07-06T13:25:16.871Z,2.20
2018-07-06T13:27:50.394Z,2.00
2018-07-06T13:30:24.727Z,2.13
2018-07-06T13:32:55.634Z,2.40
2018-07-06T13:35:31.350Z,2.30
2018-07-06T13:38:06.981Z,2.00
2018-07-06T13:40:37.531Z,2.40
2018-07-06T13:43:10.794Z,2.10
2018-07-06T13:45:42.642Z,2.00
2018-07-06T13:48:13.025Z,2.10
2018-07-06T13:50:47.043Z,2.10
2018-07-06T13:53:20.202Z,1.80
2018-07-06T13:55:57.663Z,2.00
2018-07-06T13:58:37.807Z,1.90
2018-07-06T14:01:10.283Z,2.00
2018-07-06T14:03:41.118Z,2.00
2018-07-06T14:06:17.776Z,1.93
2018-07-06T14:08:52.052Z,2.17
2018-07-06T14:11:27.259Z,1.93
2018-07-06T14:14:01.933Z,1.80
2018-07-06T14:16:34.729Z,1.87
2018-07-06T14:19:10.191Z,1.80
2018-07-06T14:21:42.933Z,2.00
2018-07-06T14:24:19.173Z,1.97
2018-07-06T14:26:52.869Z,1.50
2018-07-06T14:29:30.972Z,1.40
2018-07-06T14:32:07.279Z,1.10
2018-07-06T14:34:44.837Z,1.60
2018-07-06T14:37:19.281Z,1.70
2018-07-06T14:39:54.975Z,1.67
2018-07-06T14:42:31.092Z,1.70
2018-07-06T14:45:11.815Z,1.30
2018-07-06T14:47:47.268Z,1.70
2018-07-06T14:50:24.539Z,1.93
2018-07-06T14:52:56.190Z,1.60
2018-07-06T14:55:28.104Z,1.90
2018-07-06T14:57:59.000Z,1.50
2018-07-06T15:00:31.960Z,1.50
2018-07-06T15:03:06.463Z,3.10
2018-07-06T15:05:41.219Z,1.73
2018-07-06T15:08:18.496Z,1.97
2018-07-06T15:11:50.390Z,1.83
2018-07-06T15:14:26.609Z,1.73
2018-07-06T15:17:00.502Z,1.50
2018-07-06T15:19:33.488Z,1.50
2018-07-06T15:22:07.437Z,1.40
2018-07-06T15:24:55.784Z,1.70
2018-07-06T15:27:29.885Z,1.60
2018-07-06T15:30:08.414Z,1.60
2018-07-06T15:32:43.409Z,1.47
2018-07-06T15:35:18.733Z,2.37
2018-07-06T15:37:52.261Z,1.90
2018-07-06T15:40:25.203Z,1.70
2018-07-06T15:43:05.534Z,1.60
2018-07-06T15:45:43.351Z,1.57
2018-07-06T15:48:14.812Z,1.80
2018-07-06T15:50:50.644Z,1.70
2018-07-06T15:53:29.675Z,1.80
2018-07-06T15:56:00.873Z,1.90
2018-07-06T15:58:34.234Z,1.60
2018-07-06T16:01:10.776Z,1.80
2018-07-06T16:03:49.691Z,1.70
2018-07-06T16:06:23.828Z,2.10
2018-07-06T16:08:58.421Z,1.87
2018-07-06T16:11:34.311Z,2.13
2018-07-06T16:14:13.595Z,1.73
2018-07-06T16:16:49.771Z,1.87
2018-07-06T16:19:28.773Z,1.97
2018-07-06T16:22:02.061Z,2.20
2018-07-06T16:24:35.819Z,1.63
2018-07-06T16:27:07.103Z,1.80
2018-07-06T16:29:43.394Z,1.70
2018-07-06T16:32:18.909Z,1.50
2018-07-06T16:34:50.391Z,2.60
2018-07-06T16:37:29.815Z,2.33
2018-07-06T16:40:08.775Z,1.90
2018-07-06T16:42:41.413Z,2.07
2018-07-06T16:45:19.103Z,1.80
2018-07-06T16:47:57.901Z,2.20
2018-07-06T16:50:37.352Z,1.80
2018-07-06T16:53:20.655Z,2.10
2018-07-06T16:55:55.235Z,2.10
2018-07-06T17:01:07.037Z,2.50
2018-07-06T17:04:02.376Z,2.47
2018-07-06T17:06:33.917Z,2.30
2018-07-06T17:09:07.104Z,2.50
2018-07-06T17:11:45.071Z,2.20
2018-07-06T17:14:20.761Z,2.23
2018-07-06T17:17:05.933Z,2.50
2018-07-06T17:19:40.707Z,2.50
2018-07-06T17:22:14.515Z,2.80
2018-07-06T17:24:49.852Z,2.60
2018-07-06T17:27:20.769Z,2.50
2018-07-06T17:30:00.211Z,2.40
2018-07-06T17:32:34.680Z,2.60
2018-07-06T17:35:15.812Z,2.37
2018-07-06T17:37:51.937Z,2.20
2018-07-06T17:40:32.847Z,2.40
2018-07-06T17:45:52.623Z,2.50
2018-07-06T17:48:30.548Z,2.40
2018-07-06T17:51:11.380Z,2.40
2018-07-06T17:53:46.619Z,3.10
2018-07-06T17:56:18.714Z,2.67
2018-07-06T17:58:55.850Z,2.20
2018-07-06T18:01:45.096Z,2.97
2018-07-06T18:04:30.718Z,2.50
2018-07-06T18:07:08.664Z,2.73
2018-07-06T18:09:44.712Z,2.80
2018-07-06T18:12:20.487Z,2.93
2018-07-06T18:14:58.803Z,2.60
2018-07-06T18:17:32.895Z,3.10
2018-07-06T18:22:35.530Z,3.13
2018-07-06T18:25:10.882Z,2.80
2018-07-06T18:27:54.202Z,2.97
2018-07-06T18:30:29.579Z,2.60
2018-07-06T18:33:05.750Z,2.07
2018-07-06T18:35:39.427Z,2.60
2018-07-06T18:38:12.310Z,2.67
2018-07-06T18:40:50.687Z,2.60
2018-07-06T18:43:30.291Z,2.40
2018-07-06T18:46:28.478Z,2.73
2018-07-06T18:49:06.692Z,3.10
2018-07-06T18:51:40.330Z,2.30
2018-07-06T18:54:16.036Z,1.80
2018-07-06T18:59:37.108Z,2.57
2018-07-06T19:04:58.665Z,2.27
2018-07-06T19:07:35.121Z,2.27
2018-07-06T19:10:14.878Z,2.40
2018-07-06T19:12:54.313Z,1.97
2018-07-06T19:15:34.436Z,2.43
2018-07-06T19:18:11.852Z,1.83
2018-07-06T19:20:42.802Z,2.10
2018-07-06T19:23:23.695Z,1.73
2018-07-06T19:26:07.655Z,2.37
2018-07-06T19:28:46.579Z,2.27
2018-07-06T19:31:20.322Z,2.40
2018-07-06T19:33:54.380Z,2.20
2018-07-06T19:36:45.757Z,2.70
2018-07-06T19:39:20.579Z,2.53
2018-07-06T19:41:56.581Z,2.30
2018-07-06T19:44:34.051Z,1.77
2018-07-06T19:50:07.219Z,1.97
2018-07-06T19:52:51.332Z,2.30
2018-07-06T19:55:25.155Z,2.20
2018-07-06T19:58:00.156Z,2.33
2018-07-06T20:00:36.493Z,1.60
2018-07-06T20:03:09.782Z,2.03
2018-07-06T20:05:50.314Z,2.10
2018-07-06T20:08:31.349Z,2.10
2018-07-06T20:11:10.509Z,1.53
2018-07-06T20:13:50.851Z,2.70
2018-07-06T20:16:39.628Z,2.10
2018-07-06T20:19:20.807Z,2.10
2018-07-06T20:22:01.674Z,2.60
2018-07-06T20:24:36.963Z,2.67
2018-07-06T20:27:12.553Z,2.10
2018-07-06T20:29:48.727Z,2.83
2018-07-06T20:32:30.576Z,2.63
2018-07-06T20:35:05.734Z,2.37
2018-07-06T20:37:42.759Z,2.83
2018-07-06T20:40:24.193Z,2.10
2018-07-06T20:42:59.042Z,3.37
2018-07-06T20:45:38.994Z,2.60
2018-07-06T20:48:26.078Z,2.10
2018-07-06T20:51:01.304Z,2.53
2018-07-06T20:53:41.609Z,2.80
2018-07-06T20:56:18.579Z,2.87
2018-07-06T21:01:42.556Z,2.13
2018-07-06T21:04:26.904Z,2.57
2018-07-06T21:07:05.416Z,2.40
2018-07-06T21:09:51.374Z,3.00
2018-07-06T21:12:24.127Z,2.30
2018-07-06T21:15:00.815Z,2.70
2018-07-06T21:17:41.610Z,2.00
2018-07-06T21:20:15.648Z,2.37
2018-07-06T21:22:50.420Z,2.60
2018-07-06T21:25:22.464Z,2.43
2018-07-06T21:27:56.592Z,2.07
2018-07-06T21:30:33.414Z,1.80
2018-07-06T21:33:08.367Z,1.80
2018-07-06T21:35:52.230Z,2.53
2018-07-06T21:38:27.846Z,2.40
2018-07-06T21:41:00.246Z,2.10
2018-07-06T21:43:39.790Z,1.87
2018-07-06T21:46:12.893Z,2.90
2018-07-06T21:48:46.356Z,2.10
2018-07-06T21:51:18.202Z,2.33
2018-07-06T21:54:01.583Z,1.80
2018-07-06T21:56:34.364Z,2.13
2018-07-06T21:59:06.536Z,3.27
2018-07-06T22:01:41.627Z,2.07
2018-07-06T22:06:50.166Z,2.07
2018-07-06T22:09:22.712Z,2.10
2018-07-06T22:12:01.546Z,3.17
2018-07-06T22:14:43.523Z,3.27
2018-07-06T22:17:14.938Z,2.97
2018-07-06T22:20:46.356Z,2.10
2018-07-06T22:23:21.045Z,1.70
2018-07-06T22:25:54.353Z,2.43
2018-07-06T22:28:24.388Z,2.33
2018-07-06T22:30:56.044Z,2.43
2018-07-06T22:33:28.953Z,2.40
2018-07-06T22:36:04.222Z,2.50
2018-07-06T22:38:37.752Z,2.27
2018-07-06T22:41:14.148Z,2.70
2018-07-06T22:43:58.557Z,2.60
2018-07-06T22:46:36.487Z,2.47
2018-07-06T22:49:08.090Z,2.57
2018-07-06T22:51:44.132Z,1.77
2018-07-06T22:54:13.636Z,2.03
2018-07-06T22:56:44.034Z,1.70
2018-07-06T22:59:13.316Z,2.43
2018-07-06T23:01:42.717Z,2.50
2018-07-06T23:04:12.255Z,2.07
2018-07-06T23:06:42.888Z,2.43
2018-07-06T23:09:12.242Z,3.30
2018-07-06T23:11:41.354Z,2.60
2018-07-06T23:14:10.721Z,2.27
2018-07-06T23:16:40.614Z,2.50
2018-07-06T23:19:10.695Z,2.17
2018-07-06T23:21:40.068Z,2.50
2018-07-06T23:24:09.977Z,2.40
2018-07-06T23:26:40.132Z,2.13
2018-07-06T23:29:09.392Z,1.83
2018-07-06T23:31:38.625Z,2.53
2018-07-06T23:34:07.700Z,2.70
2018-07-06T23:36:36.933Z,2.10
2018-07-06T23:39:06.092Z,2.53
2018-07-06T23:41:35.198Z,2.60
2018-07-06T23:44:04.676Z,2.20
2018-07-06T23:46:34.169Z,2.97
2018-07-06T23:49:03.838Z,2.97
2018-07-06T23:51:33.332Z,2.70
2018-07-06T23:54:03.157Z,2.73
2018-07-06T23:56:32.438Z,2.37
2018-07-06T23:59:01.587Z,2.60
